sensor_id;sensor_type;location;lat;lon;timestamp;pressure;altitude;pressure_sealevel;temperature;humidity
59650;BME280;46162;57.568;25.814;2022-12-10T00:00:53;100646.06;;;-12.62;100.00
59650;BME280;46162;57.568;25.814;2022-12-10T00:03:42;100652.00;;;-12.36;100.00
59650;BME280;46162;57.568;25.814;2022-12-10T00:06:21;100654.56;;;-12.34;100.00
59650;BME280;46162;57.568;25.814;2022-12-10T00:09:02;100651.16;;;-12.41;100.00
59650;BME280;46162;57.568;25.814;2022-12-10T00:12:00;100660.78;;;-12.64;100.00
59650;BME280;46162;57.568;25.814;2022-12-10T00:14:35;100661.81;;;-13.02;100.00
59650;BME280;46162;57.568;25.814;2022-12-10T00:17:16;100658.34;;;-13.06;100.00
59650;BME280;46162;57.568;25.814;2022-12-10T00:19:55;100663.56;;;-13.13;100.00
59650;BME280;46162;57.568;25.814;2022-12-10T00:22:27;100670.50;;;-13.08;100.00
59650;BME280;46162;57.568;25.814;2022-12-10T00:24:56;100667.97;;;-13.28;100.00
59650;BME280;46162;57.568;25.814;2022-12-10T00:27:25;100665.41;;;-13.63;100.00
59650;BME280;46162;57.568;25.814;2022-12-10T00:29:54;100673.19;;;-13.60;100.00
59650;BME280;46162;57.568;25.814;2022-12-10T00:32:23;100674.91;;;-13.33;100.00
59650;BME280;46162;57.568;25.814;2022-12-10T00:34:52;100669.72;;;-13.36;100.00
59650;BME280;46162;57.568;25.814;2022-12-10T00:37:20;100678.38;;;-13.31;100.00
59650;BME280;46162;57.568;25.814;2022-12-10T00:39:50;100678.28;;;-13.15;100.00
59650;BME280;46162;57.568;25.814;2022-12-10T00:42:19;100679.16;;;-13.12;100.00
59650;BME280;46162;57.568;25.814;2022-12-10T00:44:48;100679.16;;;-13.12;100.00
59650;BME280;46162;57.568;25.814;2022-12-10T00:47:17;100678.38;;;-13.43;100.00
59650;BME280;46162;57.568;25.814;2022-12-10T00:49:46;100675.78;;;-13.43;100.00
59650;BME280;46162;57.568;25.814;2022-12-10T00:52:15;100673.22;;;-13.52;100.00
59650;BME280;46162;57.568;25.814;2022-12-10T00:54:44;100668.84;;;-13.36;100.00
59650;BME280;46162;57.568;25.814;2022-12-10T00:57:14;100679.28;;;-13.73;100.00
59650;BME280;46162;57.568;25.814;2022-12-10T00:59:43;100681.88;;;-13.69;100.00
59650;BME280;46162;57.568;25.814;2022-12-10T01:02:12;100686.22;;;-13.65;100.00
59650;BME280;46162;57.568;25.814;2022-12-10T01:04:41;100676.66;;;-13.75;100.00
59650;BME280;46162;57.568;25.814;2022-12-10T01:07:09;100673.22;;;-13.81;100.00
59650;BME280;46162;57.568;25.814;2022-12-10T01:09:38;100679.25;;;-13.87;100.00
59650;BME280;46162;57.568;25.814;2022-12-10T01:12:07;100678.41;;;-13.98;100.00
59650;BME280;46162;57.568;25.814;2022-12-10T01:14:37;100668.88;;;-13.82;100.00
59650;BME280;46162;57.568;25.814;2022-12-10T01:17:09;100653.31;;;-13.66;100.00
59650;BME280;46162;57.568;25.814;2022-12-10T01:19:38;100660.19;;;-13.38;100.00
59650;BME280;46162;57.568;25.814;2022-12-10T01:22:08;100655.00;;;-13.37;100.00
59650;BME280;46162;57.568;25.814;2022-12-10T01:24:37;100661.00;;;-13.10;100.00
59650;BME280;46162;57.568;25.814;2022-12-10T01:27:05;100657.59;;;-13.43;100.00
59650;BME280;46162;57.568;25.814;2022-12-10T01:29:34;100661.09;;;-13.69;100.00
59650;BME280;46162;57.568;25.814;2022-12-10T01:32:04;100663.69;;;-13.86;100.00
59650;BME280;46162;57.568;25.814;2022-12-10T01:34:37;100664.56;;;-14.00;100.00
59650;BME280;46162;57.568;25.814;2022-12-10T01:37:06;100671.47;;;-14.12;100.00
59650;BME280;46162;57.568;25.814;2022-12-10T01:39:35;100667.16;;;-14.05;100.00
59650;BME280;46162;57.568;25.814;2022-12-10T01:42:04;100662.81;;;-13.43;100.00
59650;BME280;46162;57.568;25.814;2022-12-10T01:45:06;100672.34;;;-14.02;100.00
59650;BME280;46162;57.568;25.814;2022-12-10T01:47:37;100676.59;;;-14.42;100.00
59650;BME280;46162;57.568;25.814;2022-12-10T01:50:07;100675.69;;;-14.52;100.00
59650;BME280;46162;57.568;25.814;2022-12-10T01:52:37;100674.84;;;-14.62;100.00
59650;BME280;46162;57.568;25.814;2022-12-10T01:57:58;100671.38;;;-14.56;100.00
59650;BME280;46162;57.568;25.814;2022-12-10T02:00:27;100677.44;;;-14.53;100.00
59650;BME280;46162;57.568;25.814;2022-12-10T02:03:01;100674.84;;;-14.65;100.00
59650;BME280;46162;57.568;25.814;2022-12-10T02:05:39;100666.19;;;-14.67;100.00
59650;BME280;46162;57.568;25.814;2022-12-10T02:08:18;100665.38;;;-14.32;100.00
59650;BME280;46162;57.568;25.814;2022-12-10T02:10:58;100662.81;;;-14.17;100.00
59650;BME280;46162;57.568;25.814;2022-12-10T02:13:31;100667.97;;;-14.35;100.00
59650;BME280;46162;57.568;25.814;2022-12-10T02:16:06;100672.31;;;-14.33;100.00
59650;BME280;46162;57.568;25.814;2022-12-10T02:18:42;100670.63;;;-14.01;100.00
59650;BME280;46162;57.568;25.814;2022-12-10T02:21:17;100679.25;;;-14.09;100.00
59650;BME280;46162;57.568;25.814;2022-12-10T02:23:54;100681.78;;;-14.48;100.00
59650;BME280;46162;57.568;25.814;2022-12-10T02:26:29;100675.56;;;-15.03;100.00
59650;BME280;46162;57.568;25.814;2022-12-10T02:29:07;100673.84;;;-14.91;100.00
59650;BME280;46162;57.568;25.814;2022-12-10T02:31:44;100670.34;;;-15.07;100.00
59650;BME280;46162;57.568;25.814;2022-12-10T02:34:15;100680.72;;;-15.07;100.00
59650;BME280;46162;57.568;25.814;2022-12-10T02:36:47;100679.91;;;-14.96;100.00
59650;BME280;46162;57.568;25.814;2022-12-10T02:39:22;100682.56;;;-14.77;100.00
59650;BME280;46162;57.568;25.814;2022-12-10T02:41:58;100679.91;;;-14.92;100.00
59650;BME280;46162;57.568;25.814;2022-12-10T02:44:33;100676.41;;;-15.01;100.00
59650;BME280;46162;57.568;25.814;2022-12-10T02:47:05;100677.41;;;-14.73;100.00
59650;BME280;46162;57.568;25.814;2022-12-10T02:49:40;100679.97;;;-14.71;100.00
59650;BME280;46162;57.568;25.814;2022-12-10T02:52:12;100683.44;;;-14.78;100.00
59650;BME280;46162;57.568;25.814;2022-12-10T02:54:45;100675.59;;;-14.98;100.00
59650;BME280;46162;57.568;25.814;2022-12-10T02:57:31;100670.38;;;-15.03;100.00
59650;BME280;46162;57.568;25.814;2022-12-10T03:00:10;100675.91;;;-15.84;100.00
59650;BME280;46162;57.568;25.814;2022-12-10T03:03:07;100669.81;;;-16.79;100.00
59650;BME280;46162;57.568;25.814;2022-12-10T03:05:45;100670.59;;;-16.87;100.00
59650;BME280;46162;57.568;25.814;2022-12-10T03:08:18;100670.78;;;-16.67;100.00
59650;BME280;46162;57.568;25.814;2022-12-10T03:10:52;100675.22;;;-16.54;100.00
59650;BME280;46162;57.568;25.814;2022-12-10T03:13:26;100681.38;;;-16.46;100.00
59650;BME280;46162;57.568;25.814;2022-12-10T03:15:59;100677.78;;;-16.57;100.00
59650;BME280;46162;57.568;25.814;2022-12-10T03:18:29;100673.25;;;-16.77;100.00
59650;BME280;46162;57.568;25.814;2022-12-10T03:21:02;100670.16;;;-16.48;100.00
59650;BME280;46162;57.568;25.814;2022-12-10T03:23:33;100668.94;;;-16.82;100.00
59650;BME280;46162;57.568;25.814;2022-12-10T03:26:04;100680.97;;;-16.84;100.00
59650;BME280;46162;57.568;25.814;2022-12-10T03:28:37;100673.09;;;-16.95;100.00
59650;BME280;46162;57.568;25.814;2022-12-10T03:31:09;100672.13;;;-17.02;100.00
59650;BME280;46162;57.568;25.814;2022-12-10T03:33:40;100681.44;;;-17.15;100.00
59650;BME280;46162;57.568;25.814;2022-12-10T03:36:09;100672.22;;;-16.96;100.00
59650;BME280;46162;57.568;25.814;2022-12-10T03:38:40;100666.19;;;-16.95;100.00
59650;BME280;46162;57.568;25.814;2022-12-10T03:41:09;100664.41;;;-17.02;100.00
59650;BME280;46162;57.568;25.814;2022-12-10T03:43:49;100660.91;;;-17.05;100.00
59650;BME280;46162;57.568;25.814;2022-12-10T03:46:20;100661.22;;;-16.81;100.00
59650;BME280;46162;57.568;25.814;2022-12-10T03:48:49;100662.81;;;-16.89;100.00
59650;BME280;46162;57.568;25.814;2022-12-10T03:51:18;100660.28;;;-16.87;100.00
59650;BME280;46162;57.568;25.814;2022-12-10T03:53:47;100666.41;;;-16.78;100.00
59650;BME280;46162;57.568;25.814;2022-12-10T03:56:17;100662.28;;;-16.59;100.00
59650;BME280;46162;57.568;25.814;2022-12-10T03:58:47;100665.69;;;-16.63;100.00
59650;BME280;46162;57.568;25.814;2022-12-10T04:01:15;100665.53;;;-16.75;100.00
59650;BME280;46162;57.568;25.814;2022-12-10T04:03:46;100656.09;;;-16.73;100.00
59650;BME280;46162;57.568;25.814;2022-12-10T04:06:17;100661.16;;;-16.85;100.00
59650;BME280;46162;57.568;25.814;2022-12-10T04:08:47;100663.06;;;-16.64;100.00
59650;BME280;46162;57.568;25.814;2022-12-10T04:11:24;100663.03;;;-16.67;100.00
59650;BME280;46162;57.568;25.814;2022-12-10T04:13:53;100662.28;;;-16.59;100.00
59650;BME280;46162;57.568;25.814;2022-12-10T04:16:40;100664.75;;;-16.66;100.00
59650;BME280;46162;57.568;25.814;2022-12-10T04:19:12;100666.72;;;-16.45;100.00
59650;BME280;46162;57.568;25.814;2022-12-10T04:21:42;100674.25;;;-16.67;100.00
59650;BME280;46162;57.568;25.814;2022-12-10T04:24:30;100666.19;;;-16.95;100.00
59650;BME280;46162;57.568;25.814;2022-12-10T04:27:20;100667.50;;;-17.26;100.00
59650;BME280;46162;57.568;25.814;2022-12-10T04:29:50;100663.19;;;-17.28;100.00
59650;BME280;46162;57.568;25.814;2022-12-10T04:32:19;100668.25;;;-17.38;100.00
59650;BME280;46162;57.568;25.814;2022-12-10T04:34:50;100662.22;;;-17.37;100.00
59650;BME280;46162;57.568;25.814;2022-12-10T04:37:19;100658.84;;;-17.31;100.00
59650;BME280;46162;57.568;25.814;2022-12-10T04:39:49;100652.72;;;-17.39;100.00
59650;BME280;46162;57.568;25.814;2022-12-10T04:42:19;100654.19;;;-17.57;100.00
59650;BME280;46162;57.568;25.814;2022-12-10T04:44:48;100658.47;;;-17.59;100.00
59650;BME280;46162;57.568;25.814;2022-12-10T04:47:17;100660.69;;;-17.85;100.00
59650;BME280;46162;57.568;25.814;2022-12-10T04:49:46;100645.13;;;-17.91;100.00
59650;BME280;46162;57.568;25.814;2022-12-10T04:52:16;100649.75;;;-17.67;100.00
59650;BME280;46162;57.568;25.814;2022-12-10T04:54:45;100656.44;;;-17.20;100.00
59650;BME280;46162;57.568;25.814;2022-12-10T04:57:15;100653.06;;;-17.15;100.00
59650;BME280;46162;57.568;25.814;2022-12-10T04:59:44;100642.81;;;-17.07;100.00
59650;BME280;46162;57.568;25.814;2022-12-10T05:02:12;100643.16;;;-16.78;100.00
59650;BME280;46162;57.568;25.814;2022-12-10T05:04:41;100647.31;;;-16.92;100.00
59650;BME280;46162;57.568;25.814;2022-12-10T05:07:10;100646.13;;;-17.17;100.00
59650;BME280;46162;57.568;25.814;2022-12-10T05:09:41;100641.88;;;-17.14;100.00
59650;BME280;46162;57.568;25.814;2022-12-10T05:12:09;100644.59;;;-17.03;100.00
59650;BME280;46162;57.568;25.814;2022-12-10T05:14:38;100647.22;;;-17.00;100.00
59650;BME280;46162;57.568;25.814;2022-12-10T05:17:07;100642.06;;;-16.98;100.00
59650;BME280;46162;57.568;25.814;2022-12-10T05:19:36;100639.41;;;-17.04;100.00
59650;BME280;46162;57.568;25.814;2022-12-10T05:22:04;100640.03;;;-17.24;100.00
59650;BME280;46162;57.568;25.814;2022-12-10T05:25:07;100652.91;;;-17.25;100.00
59650;BME280;46162;57.568;25.814;2022-12-10T05:27:36;100658.19;;;-17.18;100.00
59650;BME280;46162;57.568;25.814;2022-12-10T05:30:06;100654.00;;;-17.06;100.00
59650;BME280;46162;57.568;25.814;2022-12-10T05:32:37;100660.84;;;-17.08;100.00
59650;BME280;46162;57.568;25.814;2022-12-10T05:35:07;100660.00;;;-17.09;100.00
59650;BME280;46162;57.568;25.814;2022-12-10T05:37:36;100659.25;;;-17.00;100.00
59650;BME280;46162;57.568;25.814;2022-12-10T05:40:08;100671.06;;;-17.19;100.00
59650;BME280;46162;57.568;25.814;2022-12-10T05:42:37;100668.28;;;-17.33;100.00
59650;BME280;46162;57.568;25.814;2022-12-10T05:45:07;100675.69;;;-17.58;100.00
59650;BME280;46162;57.568;25.814;2022-12-10T05:47:36;100674.22;;;-17.40;100.00
59650;BME280;46162;57.568;25.814;2022-12-10T05:50:05;100671.28;;;-17.63;100.00
59650;BME280;46162;57.568;25.814;2022-12-10T05:52:34;100681.41;;;-17.75;100.00
59650;BME280;46162;57.568;25.814;2022-12-10T05:55:03;100678.78;;;-17.79;100.00
59650;BME280;46162;57.568;25.814;2022-12-10T05:57:35;100673.19;;;-18.08;100.00
59650;BME280;46162;57.568;25.814;2022-12-10T06:00:05;100669.31;;;-17.83;100.00
59650;BME280;46162;57.568;25.814;2022-12-10T06:02:38;100665.53;;;-17.47;100.00
59650;BME280;46162;57.568;25.814;2022-12-10T06:05:07;100677.13;;;-17.77;100.00
59650;BME280;46162;57.568;25.814;2022-12-10T06:07:36;100668.56;;;-17.13;100.00
59650;BME280;46162;57.568;25.814;2022-12-10T06:10:05;100671.25;;;-17.05;100.00
59650;BME280;46162;57.568;25.814;2022-12-10T06:12:36;100664.50;;;-16.91;100.00
59650;BME280;46162;57.568;25.814;2022-12-10T06:15:06;100662.16;;;-17.41;100.00
59650;BME280;46162;57.568;25.814;2022-12-10T06:17:35;100659.22;;;-17.67;100.00
59650;BME280;46162;57.568;25.814;2022-12-10T06:20:05;100658.88;;;-17.92;100.00
59650;BME280;46162;57.568;25.814;2022-12-10T06:22:34;100669.25;;;-18.37;100.00
59650;BME280;46162;57.568;25.814;2022-12-10T06:25:04;100672.91;;;-18.26;100.00
59650;BME280;46162;57.568;25.814;2022-12-10T06:27:33;100672.56;;;-18.45;100.00
59650;BME280;46162;57.568;25.814;2022-12-10T06:30:04;100673.81;;;-18.70;100.00
59650;BME280;46162;57.568;25.814;2022-12-10T06:32:33;100677.38;;;-18.63;100.00
59650;BME280;46162;57.568;25.814;2022-12-10T06:35:02;100679.09;;;-18.63;100.00
59650;BME280;46162;57.568;25.814;2022-12-10T06:37:32;100679.53;;;-18.39;100.00
59650;BME280;46162;57.568;25.814;2022-12-10T06:40:01;100676.06;;;-18.41;100.00
59650;BME280;46162;57.568;25.814;2022-12-10T06:42:29;100677.06;;;-17.81;100.00
59650;BME280;46162;57.568;25.814;2022-12-10T06:44:58;100676.72;;;-17.45;100.00
59650;BME280;46162;57.568;25.814;2022-12-10T06:47:28;100687.63;;;-17.63;100.00
59650;BME280;46162;57.568;25.814;2022-12-10T06:49:57;100685.38;;;-17.41;100.00
59650;BME280;46162;57.568;25.814;2022-12-10T06:52:26;100691.16;;;-17.58;100.00
59650;BME280;46162;57.568;25.814;2022-12-10T06:54:54;100682.81;;;-17.38;100.00
59650;BME280;46162;57.568;25.814;2022-12-10T06:57:23;100676.97;;;-17.26;100.00
59650;BME280;46162;57.568;25.814;2022-12-10T06:59:53;100686.06;;;-16.89;100.00
59650;BME280;46162;57.568;25.814;2022-12-10T07:02:21;100686.09;;;-16.87;100.00
59650;BME280;46162;57.568;25.814;2022-12-10T07:04:52;100688.06;;;-16.62;100.00
59650;BME280;46162;57.568;25.814;2022-12-10T07:07:23;100697.53;;;-16.65;100.00
59650;BME280;46162;57.568;25.814;2022-12-10T07:09:52;100694.16;;;-16.57;100.00
59650;BME280;46162;57.568;25.814;2022-12-10T07:12:26;100698.53;;;-16.51;100.00
59650;BME280;46162;57.568;25.814;2022-12-10T07:14:55;100696.97;;;-16.35;100.00
59650;BME280;46162;57.568;25.814;2022-12-10T07:17:24;100690.91;;;-16.40;100.00
59650;BME280;46162;57.568;25.814;2022-12-10T07:19:54;100696.25;;;-16.23;100.00
59650;BME280;46162;57.568;25.814;2022-12-10T07:22:23;100682.16;;;-16.53;100.00
59650;BME280;46162;57.568;25.814;2022-12-10T07:24:51;100683.94;;;-16.48;100.00
59650;BME280;46162;57.568;25.814;2022-12-10T07:27:20;100687.06;;;-16.75;100.00
59650;BME280;46162;57.568;25.814;2022-12-10T07:29:49;100696.97;;;-17.13;100.00
59650;BME280;46162;57.568;25.814;2022-12-10T07:32:18;100690.25;;;-16.99;100.00
59650;BME280;46162;57.568;25.814;2022-12-10T07:34:47;100687.16;;;-16.69;100.00
59650;BME280;46162;57.568;25.814;2022-12-10T07:37:17;100686.34;;;-16.63;100.00
59650;BME280;46162;57.568;25.814;2022-12-10T07:39:46;100692.81;;;-17.00;100.00
59650;BME280;46162;57.568;25.814;2022-12-10T07:42:15;100686.44;;;-17.27;100.00
59650;BME280;46162;57.568;25.814;2022-12-10T07:44:44;100688.75;;;-17.47;100.00
59650;BME280;46162;57.568;25.814;2022-12-10T07:47:15;100685.28;;;-17.47;100.00
59650;BME280;46162;57.568;25.814;2022-12-10T07:49:44;100691.44;;;-17.39;100.00
59650;BME280;46162;57.568;25.814;2022-12-10T07:52:13;100690.50;;;-17.44;100.00
59650;BME280;46162;57.568;25.814;2022-12-10T07:54:43;100688.41;;;-17.68;100.00
59650;BME280;46162;57.568;25.814;2022-12-10T07:57:12;100692.63;;;-17.73;100.00
59650;BME280;46162;57.568;25.814;2022-12-10T07:59:42;100692.34;;;-17.93;100.00
59650;BME280;46162;57.568;25.814;2022-12-10T08:02:11;100689.94;;;-17.83;100.00
59650;BME280;46162;57.568;25.814;2022-12-10T08:04:40;100683.53;;;-17.50;100.00
59650;BME280;46162;57.568;25.814;2022-12-10T08:07:10;100682.81;;;-17.38;100.00
59650;BME280;46162;57.568;25.814;2022-12-10T08:09:38;100682.66;;;-17.52;100.00
59650;BME280;46162;57.568;25.814;2022-12-10T08:12:09;100681.97;;;-17.40;100.00
59650;BME280;46162;57.568;25.814;2022-12-10T08:14:37;100685.66;;;-17.21;100.00
59650;BME280;46162;57.568;25.814;2022-12-10T08:17:06;100686.59;;;-17.15;100.00
59650;BME280;46162;57.568;25.814;2022-12-10T08:19:35;100684.97;;;-17.06;100.00
59650;BME280;46162;57.568;25.814;2022-12-10T08:22:04;100678.91;;;-17.13;100.00
59650;BME280;46162;57.568;25.814;2022-12-10T08:24:34;100667.97;;;-16.92;100.00
59650;BME280;46162;57.568;25.814;2022-12-10T08:27:03;100673.88;;;-17.01;100.00
59650;BME280;46162;57.568;25.814;2022-12-10T08:29:33;100676.44;;;-17.02;100.00
59650;BME280;46162;57.568;25.814;2022-12-10T08:32:02;100681.72;;;-16.92;100.00
59650;BME280;46162;57.568;25.814;2022-12-10T08:34:31;100680.97;;;-16.86;100.00
59650;BME280;46162;57.568;25.814;2022-12-10T08:37:00;100683.13;;;-16.43;100.00
59650;BME280;46162;57.568;25.814;2022-12-10T08:39:36;100675.41;;;-16.40;100.00
59650;BME280;46162;57.568;25.814;2022-12-10T08:42:05;100682.34;;;-16.35;100.00
59650;BME280;46162;57.568;25.814;2022-12-10T08:44:36;100687.59;;;-16.26;100.00
59650;BME280;46162;57.568;25.814;2022-12-10T08:47:04;100676.63;;;-16.00;100.00
59650;BME280;46162;57.568;25.814;2022-12-10T08:49:33;100686.38;;;-15.71;100.00
59650;BME280;46162;57.568;25.814;2022-12-10T08:52:02;100673.53;;;-15.48;100.00
59650;BME280;46162;57.568;25.814;2022-12-10T08:54:31;100688.31;;;-15.35;100.00
59650;BME280;46162;57.568;25.814;2022-12-10T08:56:59;100685.78;;;-15.24;100.00
59650;BME280;46162;57.568;25.814;2022-12-10T08:59:28;100681.53;;;-15.13;100.00
59650;BME280;46162;57.568;25.814;2022-12-10T09:01:59;100675.50;;;-15.10;100.00
59650;BME280;46162;57.568;25.814;2022-12-10T09:04:28;100673.84;;;-14.95;100.00
59650;BME280;46162;57.568;25.814;2022-12-10T09:06:56;100672.13;;;-14.91;100.00
59650;BME280;46162;57.568;25.814;2022-12-10T09:09:25;100675.69;;;-14.67;100.00
59650;BME280;46162;57.568;25.814;2022-12-10T09:11:54;100673.13;;;-14.47;100.00
59650;BME280;46162;57.568;25.814;2022-12-10T09:14:25;100681.00;;;-14.14;100.00
59650;BME280;46162;57.568;25.814;2022-12-10T09:17:09;100676.63;;;-14.30;100.00
59650;BME280;46162;57.568;25.814;2022-12-10T09:19:38;100676.63;;;-14.19;100.00
59650;BME280;46162;57.568;25.814;2022-12-10T09:22:09;100673.19;;;-14.18;100.00
59650;BME280;46162;57.568;25.814;2022-12-10T09:24:38;100676.66;;;-14.15;100.00
59650;BME280;46162;57.568;25.814;2022-12-10T09:27:07;100675.78;;;-14.04;100.00
59650;BME280;46162;57.568;25.814;2022-12-10T09:29:35;100685.31;;;-14.08;100.00
59650;BME280;46162;57.568;25.814;2022-12-10T09:32:04;100680.16;;;-13.94;100.00
59650;BME280;46162;57.568;25.814;2022-12-10T09:34:34;100677.53;;;-13.99;100.00
59650;BME280;46162;57.568;25.814;2022-12-10T09:37:03;100675.81;;;-13.91;100.00
59650;BME280;46162;57.568;25.814;2022-12-10T09:39:32;100681.84;;;-13.87;100.00
59650;BME280;46162;57.568;25.814;2022-12-10T09:42:18;100679.25;;;-13.75;100.00
59650;BME280;46162;57.568;25.814;2022-12-10T09:44:57;100682.75;;;-13.71;100.00
59650;BME280;46162;57.568;25.814;2022-12-10T09:47:33;100677.56;;;-13.67;100.00
59650;BME280;46162;57.568;25.814;2022-12-10T09:50:12;100667.16;;;-13.54;100.00
59650;BME280;46162;57.568;25.814;2022-12-10T09:52:46;100667.13;;;-13.39;100.00
59650;BME280;46162;57.568;25.814;2022-12-10T09:55:16;100663.56;;;-13.04;100.00
59650;BME280;46162;57.568;25.814;2022-12-10T09:57:48;100674.88;;;-13.22;100.00
59650;BME280;46162;57.568;25.814;2022-12-10T10:00:22;100677.41;;;-13.08;100.00
59650;BME280;46162;57.568;25.814;2022-12-10T10:02:56;100671.34;;;-13.09;100.00
59650;BME280;46162;57.568;25.814;2022-12-10T10:05:30;100673.06;;;-12.97;100.00
59650;BME280;46162;57.568;25.814;2022-12-10T10:08:03;100668.72;;;-12.95;100.00
59650;BME280;46162;57.568;25.814;2022-12-10T10:10:34;100678.25;;;-12.88;100.00
59650;BME280;46162;57.568;25.814;2022-12-10T10:13:12;100671.28;;;-12.83;100.00
59650;BME280;46162;57.568;25.814;2022-12-10T10:15:44;100674.69;;;-12.71;100.00
59650;BME280;46162;57.568;25.814;2022-12-10T10:18:29;100684.25;;;-12.75;100.00
59650;BME280;46162;57.568;25.814;2022-12-10T10:21:05;100666.91;;;-12.74;100.00
59650;BME280;46162;57.568;25.814;2022-12-10T10:23:36;100666.88;;;-12.67;100.00
59650;BME280;46162;57.568;25.814;2022-12-10T10:26:08;100672.00;;;-12.56;100.00
59650;BME280;46162;57.568;25.814;2022-12-10T10:28:41;100669.44;;;-12.59;100.00
59650;BME280;46162;57.568;25.814;2022-12-10T10:31:17;100672.88;;;-12.51;100.00
59650;BME280;46162;57.568;25.814;2022-12-10T10:33:51;100664.19;;;-12.50;100.00
59650;BME280;46162;57.568;25.814;2022-12-10T10:36:34;100664.09;;;-12.31;100.00
59650;BME280;46162;57.568;25.814;2022-12-10T10:39:25;100666.63;;;-12.24;100.00
59650;BME280;46162;57.568;25.814;2022-12-10T10:41:58;100662.28;;;-12.16;100.00
59650;BME280;46162;57.568;25.814;2022-12-10T10:44:34;100656.03;;;-11.95;100.00
59650;BME280;46162;57.568;25.814;2022-12-10T10:47:24;100665.44;;;-11.77;100.00
59650;BME280;46162;57.568;25.814;2022-12-10T10:50:00;100663.72;;;-11.82;100.00
59650;BME280;46162;57.568;25.814;2022-12-10T10:52:36;100663.59;;;-11.67;100.00
59650;BME280;46162;57.568;25.814;2022-12-10T10:55:09;100660.06;;;-11.58;100.00
59650;BME280;46162;57.568;25.814;2022-12-10T10:57:58;100657.38;;;-11.51;100.00
59650;BME280;46162;57.568;25.814;2022-12-10T11:00:27;100650.28;;;-11.36;100.00
59650;BME280;46162;57.568;25.814;2022-12-10T11:02:57;100655.31;;;-11.16;100.00
59650;BME280;46162;57.568;25.814;2022-12-10T11:05:30;100656.06;;;-11.07;100.00
59650;BME280;46162;57.568;25.814;2022-12-10T11:08:08;100652.41;;;-10.90;100.00
59650;BME280;46162;57.568;25.814;2022-12-10T11:10:47;100660.75;;;-10.61;100.00
59650;BME280;46162;57.568;25.814;2022-12-10T11:13:23;100664.31;;;-10.69;100.00
59650;BME280;46162;57.568;25.814;2022-12-10T11:16:00;100662.69;;;-10.78;100.00
59650;BME280;46162;57.568;25.814;2022-12-10T11:18:34;100663.63;;;-10.84;100.00
59650;BME280;46162;57.568;25.814;2022-12-10T11:21:07;100665.38;;;-10.83;100.00
59650;BME280;46162;57.568;25.814;2022-12-10T11:23:53;100657.59;;;-10.87;100.00
59650;BME280;46162;57.568;25.814;2022-12-10T11:26:45;100660.00;;;-10.72;100.00
59650;BME280;46162;57.568;25.814;2022-12-10T11:29:31;100664.28;;;-10.66;100.00
59650;BME280;46162;57.568;25.814;2022-12-10T11:32:20;100653.78;;;-10.62;100.00
59650;BME280;46162;57.568;25.814;2022-12-10T11:35:02;100655.44;;;-10.54;100.00
59650;BME280;46162;57.568;25.814;2022-12-10T11:37:39;100658.00;;;-10.51;100.00
59650;BME280;46162;57.568;25.814;2022-12-10T11:40:35;100653.41;;;-10.32;100.00
59650;BME280;46162;57.568;25.814;2022-12-10T11:43:35;100653.22;;;-10.22;100.00
59650;BME280;46162;57.568;25.814;2022-12-10T11:46:19;100655.41;;;-9.94;100.00
59650;BME280;46162;57.568;25.814;2022-12-10T11:49:11;100647.38;;;-9.80;100.00
59650;BME280;46162;57.568;25.814;2022-12-10T11:51:50;100658.19;;;-10.03;100.00
59650;BME280;46162;57.568;25.814;2022-12-10T11:55:05;100644.34;;;-10.08;100.00
59650;BME280;46162;57.568;25.814;2022-12-10T11:58:05;100649.69;;;-10.18;100.00
59650;BME280;46162;57.568;25.814;2022-12-10T12:00:52;100648.03;;;-10.25;100.00
59650;BME280;46162;57.568;25.814;2022-12-10T12:03:52;100649.75;;;-10.24;100.00
59650;BME280;46162;57.568;25.814;2022-12-10T12:07:08;100654.84;;;-10.14;100.00
59650;BME280;46162;57.568;25.814;2022-12-10T12:09:53;100651.22;;;-10.04;100.00
59650;BME280;46162;57.568;25.814;2022-12-10T12:12:36;100660.06;;;-10.13;100.00
59650;BME280;46162;57.568;25.814;2022-12-10T12:15:17;100650.47;;;-10.11;100.00
59650;BME280;46162;57.568;25.814;2022-12-10T12:17:54;100654.59;;;-9.96;100.00
59650;BME280;46162;57.568;25.814;2022-12-10T12:20:28;100650.03;;;-9.83;100.00
59650;BME280;46162;57.568;25.814;2022-12-10T12:23:03;100645.84;;;-9.42;100.00
59650;BME280;46162;57.568;25.814;2022-12-10T12:25:36;100645.81;;;-9.41;100.00
59650;BME280;46162;57.568;25.814;2022-12-10T12:28:12;100638.75;;;-9.36;100.00
59650;BME280;46162;57.568;25.814;2022-12-10T12:30:46;100641.28;;;-9.29;100.00
59650;BME280;46162;57.568;25.814;2022-12-10T12:33:20;100643.22;;;-9.41;100.00
59650;BME280;46162;57.568;25.814;2022-12-10T12:35:59;100635.88;;;-9.20;100.00
59650;BME280;46162;57.568;25.814;2022-12-10T12:38:36;100644.53;;;-9.18;100.00
59650;BME280;46162;57.568;25.814;2022-12-10T12:41:13;100650.69;;;-9.21;100.00
59650;BME280;46162;57.568;25.814;2022-12-10T12:43:48;100643.28;;;-8.97;100.00
59650;BME280;46162;57.568;25.814;2022-12-10T12:46:27;100643.41;;;-9.05;100.00
59650;BME280;46162;57.568;25.814;2022-12-10T12:49:02;100644.59;;;-8.76;100.00
59650;BME280;46162;57.568;25.814;2022-12-10T12:51:40;100640.38;;;-8.82;100.00
59650;BME280;46162;57.568;25.814;2022-12-10T12:54:14;100637.91;;;-8.90;100.00